world map with AJF marked

AJF - Airport

This information may not be accurate or current and is not valid for navigation or flight planning. No warranty of fitness for any purpose is made or implied.

flag of Saudi Arabia

Donate via PayPal

Additional information is available on the NEW Great Circle Mapper

Location
City:  Al-Jouf, Saudi Arabia
Name:Al-Jouf Airport
ICAO / IATA:OESK / AJF

Details
Type:Airport (Aerodrome, Airfield)
Use:Public/Civil, Military
Latitude:29°47'07"N (29.785278)
Longitude:40°05'59"E (40.099722)
Elevation:2261 ft (689 m)
Runways:1
Longest:12008 × 148 ft (3660 × 45 m)

Time
Timezone:UTC+3 (DST+5)
Local Time:

Weather
METAR:OESK  160500Z 23004KT CAVOK 04/M01 Q1016
TAF:OESK  (expired)

Related Locations
Nearby:
Farthest:GMR: 11879 mi / 19117 km
Mangareva [Totegegie], Gambier Islands, PF

Find:

   beyond  
but within

Other Information
Maps:
Sources:

  


 


Great Circle Mapper   Great Circle Mapper
Great Circle Mapper FAQ   Great Circle Mapper FAQ
  Karl's Home Page
KLSē   KLSē Home
   GC on Facebook
Airlines of the World   Airlines of the World
Donate via PayPal


Copyright © 2004-2019, Karl L. Swartz. All rights reserved.
All trademarks mentioned herein belong to their respective owners.

Please see credits for attribution and copyright information.

Karl Swartz <karl@kls2.com>
  Powered by FreeBSD
Valid HTML 4.01!
Labeled with ICRA
hCard Microformat
Geo Microformat